createdAt,value
2018-01-13T00:01:36.080Z,16.30
2018-01-13T00:04:03.907Z,12.63
2018-01-13T00:06:31.712Z,13.37
2018-01-13T00:08:59.428Z,14.00
2018-01-13T00:11:27.279Z,12.60
2018-01-13T00:13:55.089Z,12.90
2018-01-13T00:16:22.796Z,15.50
2018-01-13T00:18:50.581Z,12.40
2018-01-13T00:21:19.191Z,13.93
2018-01-13T00:23:46.938Z,11.43
2018-01-13T00:26:14.769Z,11.83
2018-01-13T00:28:42.727Z,9.50
2018-01-13T00:31:10.520Z,13.43
2018-01-13T00:33:38.300Z,15.40
2018-01-13T00:36:06.089Z,15.07
2018-01-13T00:38:33.899Z,19.77
2018-01-13T00:41:01.748Z,22.00
2018-01-13T00:43:29.513Z,23.40
2018-01-13T00:45:57.256Z,18.83
2018-01-13T00:48:25.135Z,25.07
2018-01-13T00:50:52.929Z,25.43
2018-01-13T00:53:20.720Z,22.27
2018-01-13T00:55:48.447Z,26.97
2018-01-13T00:58:16.252Z,24.20
2018-01-13T01:00:43.965Z,22.10
2018-01-13T01:03:11.745Z,16.03
2018-01-13T01:05:39.522Z,19.80
2018-01-13T01:08:07.227Z,21.20
2018-01-13T01:10:34.987Z,16.47
2018-01-13T01:13:02.663Z,19.50
2018-01-13T01:15:30.402Z,14.77
2018-01-13T01:17:58.083Z,19.07
2018-01-13T01:20:25.887Z,14.53
2018-01-13T01:22:53.560Z,14.37
2018-01-13T01:25:21.314Z,15.67
2018-01-13T01:27:49.128Z,14.93
2018-01-13T01:30:16.866Z,15.03
2018-01-13T01:32:44.839Z,11.20
2018-01-13T01:35:12.539Z,17.87
2018-01-13T01:37:40.288Z,12.20
2018-01-13T01:40:07.986Z,21.17
2018-01-13T01:42:35.696Z,13.20
2018-01-13T01:45:03.442Z,14.30
2018-01-13T01:47:31.116Z,13.20
2018-01-13T01:49:58.940Z,12.30
2018-01-13T01:52:26.663Z,9.67
2018-01-13T01:54:54.400Z,13.43
2018-01-13T01:57:22.149Z,16.53
2018-01-13T01:59:50.169Z,17.63
2018-01-13T02:02:17.912Z,18.20
2018-01-13T02:04:45.635Z,19.40
2018-01-13T02:07:13.410Z,21.70
2018-01-13T02:09:41.225Z,18.60
2018-01-13T02:12:08.922Z,16.83
2018-01-13T02:14:36.653Z,20.70
2018-01-13T02:17:04.337Z,19.23
2018-01-13T02:19:32.063Z,14.77
2018-01-13T02:21:59.745Z,15.13
2018-01-13T02:24:27.469Z,15.03
2018-01-13T02:26:55.203Z,14.90
2018-01-13T02:29:22.901Z,19.13
2018-01-13T02:31:50.627Z,14.57
2018-01-13T02:34:18.302Z,19.00
2018-01-13T02:36:46.067Z,15.60
2018-01-13T02:39:13.819Z,15.57
2018-01-13T02:41:41.704Z,17.50
2018-01-13T02:44:09.427Z,19.30
2018-01-13T02:46:37.146Z,12.17
2018-01-13T02:49:04.901Z,18.13
2018-01-13T02:51:32.646Z,11.57
2018-01-13T02:54:01.170Z,16.87
2018-01-13T02:56:28.871Z,15.03
2018-01-13T02:58:56.583Z,13.70
2018-01-13T03:01:24.459Z,10.10
2018-01-13T03:03:52.206Z,10.63
2018-01-13T03:06:19.869Z,19.57
2018-01-13T03:08:47.585Z,10.50
2018-01-13T03:11:15.340Z,10.57
2018-01-13T03:13:43.085Z,10.10
2018-01-13T03:16:10.827Z,9.30
2018-01-13T03:18:38.580Z,10.03
2018-01-13T03:21:06.332Z,12.03
2018-01-13T03:23:34.061Z,7.70
2018-01-13T03:26:01.798Z,13.43
2018-01-13T03:28:29.552Z,14.80
2018-01-13T03:30:57.208Z,12.20
2018-01-13T03:33:25.267Z,12.30
2018-01-13T03:35:53.093Z,8.53
2018-01-13T03:38:20.814Z,10.50
2018-01-13T03:40:48.554Z,12.33
2018-01-13T03:43:16.209Z,14.70
2018-01-13T03:45:43.969Z,10.67
2018-01-13T03:48:11.728Z,15.53
2018-01-13T03:50:39.393Z,12.63
2018-01-13T03:53:07.115Z,13.27
2018-01-13T03:55:34.808Z,14.33
2018-01-13T03:58:02.518Z,12.60
2018-01-13T04:00:30.254Z,11.10
2018-01-13T04:02:57.927Z,9.37
2018-01-13T04:05:25.596Z,13.50
2018-01-13T04:07:53.337Z,17.53
2018-01-13T04:10:21.085Z,14.20
2018-01-13T04:12:48.814Z,8.80
2018-01-13T04:15:16.606Z,11.40
2018-01-13T04:17:44.353Z,11.63
2018-01-13T04:20:13.844Z,21.10
2018-01-13T04:22:41.579Z,20.13
2018-01-13T04:25:09.260Z,20.40
2018-01-13T04:27:37.091Z,25.00
2018-01-13T04:30:04.846Z,24.47
2018-01-13T04:32:32.597Z,18.00
2018-01-13T04:35:00.345Z,21.27
2018-01-13T04:37:28.068Z,28.93
2018-01-13T04:39:55.810Z,19.93
2018-01-13T04:42:23.502Z,20.90
2018-01-13T04:44:51.176Z,20.77
2018-01-13T04:47:18.908Z,18.10
2018-01-13T04:49:46.603Z,18.20
2018-01-13T04:52:14.351Z,20.23
2018-01-13T04:54:42.205Z,21.57
2018-01-13T04:57:09.942Z,24.20
2018-01-13T04:59:37.623Z,21.07
2018-01-13T05:02:05.362Z,17.60
2018-01-13T05:04:33.084Z,21.50
2018-01-13T05:07:00.825Z,19.07
2018-01-13T05:09:28.526Z,11.27
2018-01-13T05:11:56.418Z,18.50
2018-01-13T05:14:24.154Z,15.87
2018-01-13T05:16:51.872Z,20.37
2018-01-13T05:19:19.654Z,20.90
2018-01-13T05:21:47.430Z,20.30
2018-01-13T05:24:15.109Z,19.27
2018-01-13T05:26:42.867Z,20.60
2018-01-13T05:29:10.537Z,15.17
2018-01-13T05:31:38.215Z,14.80
2018-01-13T05:34:06.015Z,9.50
2018-01-13T05:36:33.901Z,13.80
2018-01-13T05:39:01.693Z,16.53
2018-01-13T05:41:29.373Z,13.97
2018-01-13T05:43:57.133Z,12.67
2018-01-13T05:46:24.884Z,17.43
2018-01-13T05:48:52.593Z,16.83
2018-01-13T05:51:20.327Z,11.90
2018-01-13T05:53:48.009Z,15.83
2018-01-13T05:56:15.767Z,13.47
2018-01-13T05:58:43.508Z,20.27
2018-01-13T06:01:11.381Z,15.33
2018-01-13T06:03:39.288Z,26.23
2018-01-13T06:06:07.049Z,21.50
2018-01-13T06:08:34.798Z,22.73
2018-01-13T06:11:02.543Z,17.87
2018-01-13T06:13:30.297Z,15.47
2018-01-13T06:15:58.162Z,15.57
2018-01-13T06:18:25.929Z,20.27
2018-01-13T06:20:53.691Z,12.43
2018-01-13T06:23:21.379Z,20.13
2018-01-13T06:25:49.199Z,12.10
2018-01-13T06:28:17.813Z,11.93
2018-01-13T06:30:45.525Z,10.13
2018-01-13T06:33:13.274Z,15.67
2018-01-13T06:35:40.997Z,13.83
2018-01-13T06:38:08.832Z,13.20
2018-01-13T06:40:36.614Z,11.50
2018-01-13T06:43:05.124Z,15.87
2018-01-13T06:45:32.869Z,12.60
2018-01-13T06:48:00.593Z,14.80
2018-01-13T06:50:28.716Z,26.13
2018-01-13T06:52:56.530Z,22.50
2018-01-13T06:55:24.288Z,20.70
2018-01-13T06:57:52.884Z,28.23
2018-01-13T07:00:20.798Z,15.13
2018-01-13T07:02:48.548Z,27.13
2018-01-13T07:05:16.285Z,24.70
2018-01-13T07:07:44.060Z,23.77
2018-01-13T07:10:11.778Z,25.23
2018-01-13T07:12:39.588Z,27.40
2018-01-13T07:15:07.975Z,25.17
2018-01-13T07:17:35.710Z,25.20
2018-01-13T07:20:03.541Z,14.30
2018-01-13T07:22:31.245Z,11.50
2018-01-13T07:24:58.952Z,12.87
2018-01-13T07:27:26.779Z,19.40
2018-01-13T07:29:54.530Z,13.70
2018-01-13T07:32:22.300Z,12.60
2018-01-13T07:34:50.044Z,10.77
2018-01-13T07:37:17.801Z,12.43
2018-01-13T07:39:45.520Z,20.10
2018-01-13T07:42:13.364Z,14.13
2018-01-13T07:44:41.270Z,12.40
2018-01-13T07:47:08.962Z,12.80
2018-01-13T07:49:36.731Z,9.57
2018-01-13T07:52:04.398Z,8.73
2018-01-13T07:54:32.120Z,29.30
2018-01-13T07:56:59.853Z,21.07
2018-01-13T07:59:27.591Z,15.33
2018-01-13T08:01:55.291Z,18.70
2018-01-13T08:04:23.012Z,12.67
2018-01-13T08:06:50.734Z,18.47
2018-01-13T08:09:18.557Z,15.93
2018-01-13T08:11:46.285Z,21.50
2018-01-13T08:14:13.979Z,18.20
2018-01-13T08:16:41.791Z,21.37
2018-01-13T08:19:09.531Z,18.20
2018-01-13T08:21:37.228Z,18.83
2018-01-13T08:24:05.007Z,11.87
2018-01-13T08:26:32.730Z,15.50
2018-01-13T08:29:00.465Z,14.83
2018-01-13T08:31:28.209Z,17.57
2018-01-13T08:33:55.924Z,12.47
2018-01-13T08:36:23.748Z,11.53
2018-01-13T08:38:51.556Z,16.03
2018-01-13T08:41:19.373Z,10.73
2018-01-13T08:43:47.118Z,18.70
2018-01-13T08:46:15.014Z,18.10
2018-01-13T08:48:42.840Z,23.07
2018-01-13T08:51:10.672Z,18.83
2018-01-13T08:53:38.454Z,15.00
2018-01-13T08:56:06.264Z,13.37
2018-01-13T08:58:35.433Z,15.40
2018-01-13T09:01:03.260Z,12.40
2018-01-13T09:03:31.057Z,12.10
2018-01-13T09:05:59.020Z,12.57
2018-01-13T09:08:26.884Z,30.33
2018-01-13T09:10:54.704Z,27.30
2018-01-13T09:13:22.499Z,15.80
2018-01-13T09:15:50.273Z,14.67
2018-01-13T09:18:18.073Z,18.20
2018-01-13T09:20:45.910Z,13.23
2018-01-13T09:23:13.760Z,16.47
2018-01-13T09:25:42.334Z,19.63
2018-01-13T09:28:10.083Z,20.57
2018-01-13T09:30:37.871Z,23.93
2018-01-13T09:33:05.604Z,22.17
2018-01-13T09:35:33.330Z,18.87
2018-01-13T09:38:01.081Z,40.87
2018-01-13T09:40:28.924Z,19.60
2018-01-13T09:42:56.650Z,19.87
2018-01-13T09:45:24.432Z,16.87
2018-01-13T09:47:52.158Z,16.07
2018-01-13T09:50:19.845Z,14.00
2018-01-13T09:52:47.643Z,11.30
2018-01-13T09:55:15.382Z,20.40
2018-01-13T09:57:43.131Z,17.30
2018-01-13T10:00:10.886Z,20.37
2018-01-13T10:02:38.814Z,17.63
2018-01-13T10:05:06.641Z,18.17
2018-01-13T10:07:34.434Z,12.77
2018-01-13T10:10:02.153Z,13.63
2018-01-13T10:12:29.915Z,14.90
2018-01-13T10:14:57.676Z,13.30
2018-01-13T10:17:25.438Z,14.27
2018-01-13T10:19:53.215Z,15.93
2018-01-13T10:22:20.947Z,7.30
2018-01-13T10:24:48.870Z,11.73
2018-01-13T10:27:16.667Z,11.60
2018-01-13T10:29:44.511Z,10.50
2018-01-13T10:32:12.265Z,12.00
2018-01-13T10:34:40.658Z,16.23
2018-01-13T10:37:08.465Z,11.83
2018-01-13T10:39:36.379Z,10.20
2018-01-13T10:42:04.149Z,15.63
2018-01-13T10:44:32.044Z,13.43
2018-01-13T10:46:59.848Z,15.30
2018-01-13T10:49:27.626Z,11.83
2018-01-13T10:51:55.403Z,15.00
2018-01-13T10:54:23.181Z,9.23
2018-01-13T10:56:50.919Z,16.47
2018-01-13T10:59:18.730Z,17.97
2018-01-13T11:01:46.435Z,18.77
2018-01-13T11:04:14.231Z,17.70
2018-01-13T11:06:42.042Z,16.10
2018-01-13T11:09:09.894Z,19.87
2018-01-13T11:11:37.689Z,22.10
2018-01-13T11:14:05.361Z,16.73
2018-01-13T11:16:33.170Z,19.33
2018-01-13T11:19:00.956Z,20.17
2018-01-13T11:21:28.680Z,16.60
2018-01-13T11:23:56.445Z,15.23
2018-01-13T11:26:24.179Z,10.37
2018-01-13T11:28:51.949Z,10.27
2018-01-13T11:31:20.016Z,8.20
2018-01-13T11:33:47.844Z,8.73
2018-01-13T11:36:15.609Z,6.33
2018-01-13T11:38:43.329Z,5.50
2018-01-13T11:41:11.091Z,5.70
2018-01-13T11:43:38.809Z,6.10
2018-01-13T11:46:06.561Z,6.53
2018-01-13T11:48:34.352Z,7.87
2018-01-13T11:51:02.037Z,9.37
2018-01-13T11:53:29.827Z,11.40
2018-01-13T11:55:57.533Z,15.37
2018-01-13T11:58:25.345Z,14.60
2018-01-13T12:00:53.019Z,13.07
2018-01-13T12:03:20.796Z,19.60
2018-01-13T12:05:48.519Z,16.37
2018-01-13T12:08:16.337Z,15.50
2018-01-13T12:10:44.038Z,23.90
2018-01-13T12:13:11.739Z,28.77
2018-01-13T12:15:39.478Z,9.40
2018-01-13T12:18:07.182Z,10.17
2018-01-13T12:20:35.631Z,11.10
2018-01-13T12:23:03.472Z,9.00
2018-01-13T12:25:31.225Z,9.47
2018-01-13T12:27:58.981Z,10.13
2018-01-13T12:30:26.774Z,10.90
2018-01-13T12:32:54.618Z,7.90
2018-01-13T12:35:22.354Z,7.53
2018-01-13T12:37:50.087Z,8.93
2018-01-13T12:40:18.828Z,6.03
2018-01-13T12:42:46.567Z,8.40
2018-01-13T12:45:14.339Z,10.60
2018-01-13T12:47:42.096Z,6.97
2018-01-13T12:50:09.892Z,5.77
2018-01-13T12:52:38.789Z,4.97
2018-01-13T12:55:06.622Z,6.23
2018-01-13T12:57:34.458Z,5.70
2018-01-13T13:00:02.237Z,6.00
2018-01-13T13:02:30.476Z,7.50
2018-01-13T13:04:58.220Z,9.53
2018-01-13T13:07:26.006Z,4.20
2018-01-13T13:09:53.679Z,5.37
2018-01-13T13:12:21.482Z,7.17
2018-01-13T13:14:49.242Z,6.07
2018-01-13T13:17:16.991Z,4.73
2018-01-13T13:19:44.797Z,8.80
2018-01-13T13:22:12.563Z,5.53
2018-01-13T13:24:40.285Z,6.83
2018-01-13T13:27:08.071Z,6.70
2018-01-13T13:29:35.844Z,5.83
2018-01-13T13:32:03.563Z,7.10
2018-01-13T13:34:31.546Z,12.27
2018-01-13T13:36:59.326Z,6.10
2018-01-13T13:39:27.749Z,5.97
2018-01-13T13:41:55.609Z,6.27
2018-01-13T13:44:23.459Z,8.37
2018-01-13T13:46:51.282Z,6.70
2018-01-13T13:49:19.419Z,7.70
2018-01-13T13:51:47.288Z,7.53
2018-01-13T13:54:15.102Z,9.87
2018-01-13T13:56:43.017Z,13.63
2018-01-13T13:59:10.784Z,11.60
2018-01-13T14:01:38.548Z,9.37
2018-01-13T14:04:06.320Z,13.60
2018-01-13T14:06:34.168Z,13.37
2018-01-13T14:09:03.210Z,11.43
2018-01-13T14:11:30.922Z,16.90
2018-01-13T14:13:58.683Z,23.53
2018-01-13T14:16:26.377Z,12.00
2018-01-13T14:18:54.128Z,12.03
2018-01-13T14:21:21.825Z,10.80
2018-01-13T14:23:49.625Z,14.53
2018-01-13T14:26:17.329Z,17.57
2018-01-13T14:28:45.133Z,11.50
2018-01-13T14:31:12.906Z,17.93
2018-01-13T14:33:40.674Z,23.73
2018-01-13T14:36:08.412Z,21.70
2018-01-13T14:38:36.170Z,23.53
2018-01-13T14:41:04.020Z,23.00
2018-01-13T14:43:31.715Z,16.07
2018-01-13T14:45:59.462Z,20.57
2018-01-13T14:48:27.184Z,12.43
2018-01-13T14:50:54.957Z,13.97
2018-01-13T14:53:22.752Z,18.07
2018-01-13T14:55:50.444Z,17.73
2018-01-13T14:58:18.165Z,16.20
2018-01-13T15:00:45.910Z,17.80
2018-01-13T15:03:13.633Z,20.10
2018-01-13T15:05:41.432Z,18.33
2018-01-13T15:08:09.221Z,19.80
2018-01-13T15:10:37.060Z,16.00
2018-01-13T15:13:05.086Z,21.37
2018-01-13T15:15:33.131Z,24.27
2018-01-13T15:18:00.940Z,18.37
2018-01-13T15:20:28.731Z,21.60
2018-01-13T15:22:56.556Z,23.37
2018-01-13T15:25:24.458Z,15.40
2018-01-13T15:27:52.228Z,25.37
2018-01-13T15:30:19.965Z,19.30
2018-01-13T15:32:47.820Z,18.80
2018-01-13T15:35:15.537Z,16.53
2018-01-13T15:37:43.355Z,16.47
2018-01-13T15:40:11.276Z,16.90
2018-01-13T15:42:39.003Z,20.00
2018-01-13T15:45:06.903Z,30.40
2018-01-13T15:47:34.688Z,47.10
2018-01-13T15:50:02.469Z,42.23
2018-01-13T15:52:30.168Z,44.47
2018-01-13T15:54:57.958Z,52.17
2018-01-13T15:57:25.784Z,42.97
2018-01-13T15:59:53.550Z,26.87
2018-01-13T16:02:21.433Z,30.63
2018-01-13T16:04:49.275Z,26.20
2018-01-13T16:07:17.136Z,21.50
2018-01-13T16:09:45.242Z,21.10
2018-01-13T16:12:12.967Z,24.20
2018-01-13T16:14:40.740Z,14.67
2018-01-13T16:17:08.546Z,13.90
2018-01-13T16:19:36.326Z,16.20
2018-01-13T16:22:04.117Z,16.17
2018-01-13T16:24:31.903Z,24.40
2018-01-13T16:26:59.744Z,17.90
2018-01-13T16:29:27.430Z,22.03
2018-01-13T16:31:55.207Z,24.40
2018-01-13T16:34:22.931Z,27.60
2018-01-13T16:36:51.868Z,23.43
2018-01-13T16:39:19.836Z,69.23
2018-01-13T16:41:47.653Z,68.83
2018-01-13T16:44:15.372Z,46.40
2018-01-13T16:46:43.183Z,27.87
2018-01-13T16:49:10.953Z,25.60
2018-01-13T16:51:38.707Z,40.80
2018-01-13T16:54:06.557Z,28.40
2018-01-13T16:56:34.454Z,29.77
2018-01-13T16:59:02.266Z,22.17
2018-01-13T17:01:30.104Z,21.57
2018-01-13T17:03:57.964Z,19.43
2018-01-13T17:06:26.318Z,19.20
2018-01-13T17:08:54.134Z,13.33
2018-01-13T17:11:21.892Z,13.77
2018-01-13T17:13:49.827Z,21.43
2018-01-13T17:16:18.287Z,22.90
2018-01-13T17:18:45.983Z,24.57
2018-01-13T17:21:13.792Z,28.20
2018-01-13T17:23:41.540Z,27.70
2018-01-13T17:26:09.280Z,26.00
2018-01-13T17:28:37.061Z,23.83
2018-01-13T17:31:04.853Z,23.00
2018-01-13T17:33:32.733Z,21.77
2018-01-13T17:36:00.642Z,22.63
2018-01-13T17:38:28.702Z,31.20
2018-01-13T17:40:56.548Z,25.93
2018-01-13T17:43:24.388Z,29.03
2018-01-13T17:45:52.185Z,26.57
2018-01-13T17:48:20.242Z,24.50
2018-01-13T17:50:47.978Z,23.83
2018-01-13T17:53:16.992Z,28.87
2018-01-13T17:55:44.787Z,50.67
2018-01-13T17:58:12.556Z,45.80
2018-01-13T18:00:40.470Z,38.23
2018-01-13T18:03:08.200Z,46.20
2018-01-13T18:05:36.012Z,50.67
2018-01-13T18:08:03.750Z,34.47
2018-01-13T18:10:31.614Z,27.20
2018-01-13T18:12:59.384Z,35.57
2018-01-13T18:15:27.167Z,33.83
2018-01-13T18:17:54.987Z,24.57
2018-01-13T18:20:22.718Z,31.50
2018-01-13T18:22:50.448Z,31.60
2018-01-13T18:25:18.292Z,26.63
2018-01-13T18:27:46.074Z,29.03
2018-01-13T18:30:13.831Z,31.70
2018-01-13T18:32:41.751Z,23.87
2018-01-13T18:35:09.566Z,31.30
2018-01-13T18:37:37.390Z,28.80
2018-01-13T18:40:05.216Z,29.03
2018-01-13T18:42:33.020Z,27.17
2018-01-13T18:45:01.576Z,21.70
2018-01-13T18:47:29.346Z,27.17
2018-01-13T18:49:57.165Z,25.47
2018-01-13T18:52:24.945Z,28.50
2018-01-13T18:54:52.643Z,24.67
2018-01-13T18:57:20.424Z,34.40
2018-01-13T18:59:48.248Z,36.07
2018-01-13T19:02:16.069Z,33.77
2018-01-13T19:04:44.109Z,31.60
2018-01-13T19:07:11.881Z,35.90
2018-01-13T19:09:40.373Z,33.07
2018-01-13T19:12:08.845Z,28.30
2018-01-13T19:14:36.850Z,29.70
2018-01-13T19:17:04.612Z,33.03
2018-01-13T19:19:32.443Z,29.10
2018-01-13T19:22:01.872Z,32.20
2018-01-13T19:24:30.007Z,28.43
2018-01-13T19:26:57.867Z,34.00
2018-01-13T19:29:25.872Z,33.13
2018-01-13T19:31:53.714Z,28.40
2018-01-13T19:34:21.611Z,27.30
2018-01-13T19:36:49.454Z,29.50
2018-01-13T19:39:17.235Z,32.90
2018-01-13T19:41:45.146Z,31.87
2018-01-13T19:44:13.014Z,30.40
2018-01-13T19:46:40.932Z,28.93
2018-01-13T19:49:08.790Z,29.83
2018-01-13T19:51:36.640Z,30.27
2018-01-13T19:54:04.518Z,32.50
2018-01-13T19:56:32.300Z,32.27
2018-01-13T19:59:00.536Z,29.63
2018-01-13T20:01:28.763Z,31.43
2018-01-13T20:03:56.777Z,29.10
2018-01-13T20:06:24.879Z,26.80
2018-01-13T20:08:52.768Z,30.83
2018-01-13T20:11:20.934Z,27.90
2018-01-13T20:13:48.985Z,35.50
2018-01-13T20:16:17.068Z,37.93
2018-01-13T20:18:44.931Z,33.83
2018-01-13T20:21:13.825Z,34.53
2018-01-13T20:23:42.404Z,34.13
2018-01-13T20:26:10.402Z,36.63
2018-01-13T20:28:38.275Z,29.37
2018-01-13T20:31:06.726Z,37.70
2018-01-13T20:33:34.662Z,31.47
2018-01-13T20:36:02.538Z,35.30
2018-01-13T20:38:30.447Z,30.67
2018-01-13T20:40:58.560Z,38.37
2018-01-13T20:43:26.350Z,33.03
2018-01-13T20:45:54.125Z,30.03
2018-01-13T20:48:21.866Z,28.13
2018-01-13T20:50:49.698Z,29.23
2018-01-13T20:53:17.666Z,25.23
2018-01-13T20:55:45.451Z,29.47
2018-01-13T20:58:13.241Z,31.20
2018-01-13T21:00:41.293Z,25.27
2018-01-13T21:03:09.113Z,26.30
2018-01-13T21:05:36.939Z,28.27
2018-01-13T21:08:04.679Z,25.37
2018-01-13T21:10:32.526Z,38.33
2018-01-13T21:13:00.289Z,24.90
2018-01-13T21:15:28.133Z,28.63
2018-01-13T21:17:55.870Z,27.43
2018-01-13T21:20:23.641Z,34.00
2018-01-13T21:22:51.487Z,37.00
2018-01-13T21:25:19.242Z,32.07
2018-01-13T21:27:46.960Z,36.27
2018-01-13T21:30:15.055Z,33.77
2018-01-13T21:32:42.855Z,33.77
2018-01-13T21:35:10.619Z,34.43
2018-01-13T21:37:38.483Z,39.30
2018-01-13T21:40:06.348Z,34.37
2018-01-13T21:42:34.089Z,35.13
2018-01-13T21:45:01.965Z,34.80
2018-01-13T21:47:29.723Z,34.43
2018-01-13T21:49:57.617Z,39.27
2018-01-13T21:52:25.441Z,38.80
2018-01-13T21:54:53.208Z,36.97
2018-01-13T21:57:21.074Z,39.50
2018-01-13T21:59:48.827Z,35.77
2018-01-13T22:02:16.597Z,42.00
2018-01-13T22:04:44.353Z,34.33
2018-01-13T22:07:12.108Z,33.57
2018-01-13T22:09:40.402Z,33.63
2018-01-13T22:12:08.520Z,44.40
2018-01-13T22:14:37.218Z,33.10
2018-01-13T22:17:05.122Z,44.53
2018-01-13T22:19:33.572Z,53.00
2018-01-13T22:22:01.346Z,102.93
2018-01-13T22:24:29.099Z,66.43
2018-01-13T22:26:56.816Z,62.60
2018-01-13T22:29:24.595Z,55.13
2018-01-13T22:31:52.367Z,46.47
2018-01-13T22:34:20.205Z,53.57
2018-01-13T22:36:48.042Z,45.63
2018-01-13T22:39:15.739Z,43.47
2018-01-13T22:41:43.462Z,51.40
2018-01-13T22:44:11.261Z,46.50
2018-01-13T22:46:38.987Z,41.03
2018-01-13T22:49:06.704Z,43.30
2018-01-13T22:51:34.794Z,31.97
2018-01-13T22:54:02.571Z,38.20
2018-01-13T22:56:30.346Z,32.50
2018-01-13T22:58:58.125Z,37.50
2018-01-13T23:01:25.816Z,31.63
2018-01-13T23:03:53.541Z,34.40
2018-01-13T23:06:21.311Z,35.70
2018-01-13T23:08:49.011Z,35.23
2018-01-13T23:11:16.752Z,46.60
2018-01-13T23:13:44.479Z,46.57
2018-01-13T23:16:13.097Z,39.90
2018-01-13T23:18:40.887Z,46.10
2018-01-13T23:21:08.682Z,39.97
2018-01-13T23:23:36.499Z,36.13
2018-01-13T23:26:04.226Z,44.07
2018-01-13T23:28:32.026Z,34.53
2018-01-13T23:30:59.758Z,53.77
2018-01-13T23:33:27.575Z,30.03
2018-01-13T23:35:55.293Z,31.10
2018-01-13T23:38:24.029Z,28.20
2018-01-13T23:40:51.791Z,22.63
2018-01-13T23:43:19.552Z,18.07
2018-01-13T23:45:47.286Z,19.27
2018-01-13T23:48:14.961Z,15.03
2018-01-13T23:50:42.706Z,14.77
2018-01-13T23:53:10.375Z,10.13
2018-01-13T23:55:38.136Z,11.80
2018-01-13T23:58:05.870Z,10.60
